Time;durP1;ratioP1;P1;durP2;ratioP2;P2;SDS_P1;SDS_P2;PMS_P1;PMS_P2;Temp;Humidity;BMP_temperature;BMP_pressure;BME280_temperature;BME280_humidity;BME280_pressure;Samples;Min_cycle;Max_cycle;Signal;HPM_P1;HPM_P2
2022/12/14 11:21:39;;;;;;;19.97;9.53;;;;;;;-1.41;100.00;100846.06;1782683;80;21080;-71
2022/12/14 11:24:24;;;;;;;22.00;10.37;;;;;;;-1.41;100.00;100846.06;1780880;80;21738;-70
2022/12/14 11:26:54;;;;;;;21.00;10.00;;;;;;;-1.48;100.00;100853.92;1783458;79;21049;-69
2022/12/14 11:29:28;;;;;;;21.87;10.13;;;;;;;-1.46;100.00;100845.42;1782255;80;21046;-69
2022/12/14 11:31:55;;;;;;;23.00;10.75;;;;;;;-1.43;100.00;100845.28;1780186;80;21168;-68
2022/12/14 11:34:37;;;;;;;19.27;9.17;;;;;;;-1.40;100.00;100838.48;1788512;80;21004;-69
2022/12/14 11:37:29;;;;;;;16.87;8.13;;;;;;;-1.34;100.00;100843.50;1783422;80;21013;-68
2022/12/14 11:39:59;;;;;;;22.27;9.33;;;;;;;-1.27;100.00;100846.72;1783415;80;21037;-68
2022/12/14 11:42:29;;;;;;;17.67;8.47;;;;;;;-1.04;100.00;100849.55;1780895;80;21017;-68
2022/12/14 11:45:28;;;;;;;17.47;8.40;;;;;;;-0.71;100.00;100850.09;1783192;79;21119;-68
2022/12/14 11:48:18;;;;;;;18.93;8.63;;;;;;;-0.36;100.00;100846.91;1739396;79;37441;-70
2022/12/14 11:50:47;;;;;;;16.97;8.57;;;;;;;-0.05;100.00;100849.28;1674818;83;21113;-70
2022/12/14 11:53:17;;;;;;;36.80;15.10;;;;;;;0.11;100.00;100845.31;1689713;84;21089;-69
2022/12/14 11:55:55;;;;;;;53.63;23.80;;;;;;;0.25;100.00;100853.83;1662317;83;21548;-69
2022/12/14 11:58:32;;;;;;;47.67;24.00;;;;;;;0.33;100.00;100855.61;1686240;84;21134;-67
2022/12/14 12:01:03;;;;;;;21.00;11.57;;;;;;;0.52;100.00;100848.80;1693144;84;21192;-70
2022/12/14 12:03:39;;;;;;;27.57;15.07;;;;;;;0.83;100.00;100864.33;1698737;84;21061;-70
2022/12/14 12:06:09;;;;;;;29.00;15.60;;;;;;;1.03;100.00;100866.70;1697259;83;21081;-70
2022/12/14 12:08:40;;;;;;;25.30;14.57;;;;;;;1.13;100.00;100873.22;1649841;86;21508;-70
2022/12/14 12:11:18;;;;;;;19.77;11.77;;;;;;;1.19;100.00;100862.67;1688883;82;21102;-69
2022/12/14 12:13:47;;;;;;;19.50;10.77;;;;;;;1.13;100.00;100871.89;1679772;83;21614;-68
2022/12/14 12:16:22;;;;;;;22.87;12.10;;;;;;;0.90;100.00;100876.34;1648873;86;21058;-70
2022/12/14 12:19:00;;;;;;;24.60;12.83;;;;;;;0.94;100.00;100881.41;1651740;86;21098;-70
2022/12/14 12:21:30;;;;;;;22.73;11.20;;;;;;;0.95;100.00;100881.78;1641346;86;21043;-70
2022/12/14 12:24:29;;;;;;;23.67;12.60;;;;;;;0.90;100.00;100877.67;1697510;82;21184;-69
2022/12/14 12:27:02;;;;;;;19.83;10.47;;;;;;;0.89;100.00;100884.81;1684474;82;21094;-69
2022/12/14 12:29:46;;;;;;;19.62;10.00;;;;;;;0.89;100.00;100875.98;1689485;83;21074;-68
2022/12/14 12:32:26;;;;;;;19.87;9.57;;;;;;;0.84;100.00;100872.23;1643783;86;21592;-68
2022/12/14 12:35:04;;;;;;;19.80;9.80;;;;;;;0.85;100.00;100870.42;1692834;82;21137;-67
2022/12/14 12:37:52;;;;;;;19.90;10.50;;;;;;;0.94;100.00;100871.24;1688331;83;21055;-68
2022/12/14 12:40:32;;;;;;;25.10;12.90;;;;;;;0.87;100.00;100863.23;1679900;83;21516;-68
2022/12/14 12:43:36;;;;;;;23.53;11.27;;;;;;;0.87;100.00;100874.73;1691965;84;21035;-67
2022/12/14 12:46:19;;;;;;;22.97;10.57;;;;;;;0.92;100.00;100874.44;1704915;81;21053;-67
2022/12/14 12:48:51;;;;;;;25.10;11.77;;;;;;;0.83;100.00;100879.82;1723630;81;21046;-68
2022/12/14 12:51:25;;;;;;;25.77;13.47;;;;;;;0.92;100.00;100879.77;1723564;81;21078;-68
2022/12/14 12:54:09;;;;;;;24.93;13.00;;;;;;;1.07;100.00;100884.70;1720383;81;21077;-69
2022/12/14 12:56:49;;;;;;;21.73;10.93;;;;;;;1.18;100.00;100897.39;1719308;82;21061;-66
2022/12/14 12:59:38;;;;;;;20.07;9.57;;;;;;;1.29;100.00;100898.48;1721033;81;21049;-67
2022/12/14 13:02:37;;;;;;;21.23;9.33;;;;;;;1.35;100.00;100900.38;1675473;81;21038;-67
2022/12/14 13:05:13;;;;;;;18.40;8.50;;;;;;;1.30;100.00;100893.52;1668757;84;21138;-67
2022/12/14 13:08:00;;;;;;;19.33;9.30;;;;;;;1.27;100.00;100892.36;1660358;84;21054;-68
2022/12/14 13:10:39;;;;;;;16.10;7.67;;;;;;;1.11;100.00;100891.07;1661775;84;21046;-65
2022/12/14 13:13:26;;;;;;;18.27;8.10;;;;;;;0.80;100.00;100895.11;1659475;84;21138;-65
2022/12/14 13:15:56;;;;;;;18.43;8.50;;;;;;;0.51;100.00;100899.84;1671428;84;21039;-68
2022/12/14 13:18:42;;;;;;;18.07;8.70;;;;;;;0.13;100.00;100901.45;1689643;84;21532;-68
2022/12/14 13:21:31;;;;;;;19.20;8.57;;;;;;;-0.21;100.00;100906.39;1683589;84;21477;-67
2022/12/14 13:23:58;;;;;;;18.60;8.30;;;;;;;-0.47;100.00;100911.25;1678202;84;21036;-68
2022/12/14 13:26:53;;;;;;;19.97;9.70;;;;;;;-0.78;100.00;100919.91;1680027;84;21066;-67
2022/12/14 13:29:57;;;;;;;18.60;9.13;;;;;;;-1.03;100.00;100919.80;1679179;85;21019;-67
2022/12/14 13:33:11;;;;;;;17.73;8.43;;;;;;;-1.33;100.00;100923.47;1686110;85;21089;-66
2022/12/14 13:36:23;;;;;;;18.20;8.60;;;;;;;-1.63;100.00;100927.11;1684552;84;21098;-67
2022/12/14 13:39:19;;;;;;;19.67;8.93;;;;;;;-1.85;100.00;100934.73;1679188;84;21106;-66
2022/12/14 13:42:12;;;;;;;16.87;7.80;;;;;;;-1.97;100.00;100932.63;1678492;85;20999;-67
2022/12/14 13:45:01;;;;;;;18.13;7.83;;;;;;;-2.09;100.00;100940.66;1663822;84;21046;-67
2022/12/14 13:47:41;;;;;;;18.60;8.43;;;;;;;-2.16;100.00;100947.16;1711650;81;21069;-67
2022/12/14 13:50:22;;;;;;;18.30;8.00;;;;;;;-2.22;100.00;100952.27;1714896;82;21567;-66
2022/12/14 13:52:49;;;;;;;17.70;8.97;;;;;;;-2.27;100.00;100961.34;1715666;82;21065;-66
2022/12/14 13:55:38;;;;;;;18.73;8.73;;;;;;;-2.27;100.00;100966.64;1714531;84;21117;-67
2022/12/14 13:58:23;;;;;;;18.93;8.23;;;;;;;-2.29;100.00;100960.94;1713164;82;21109;-67
2022/12/14 14:01:03;;;;;;;23.10;10.13;;;;;;;-2.32;100.00;100952.27;1702005;83;21073;-67
2022/12/14 14:03:40;;;;;;;27.03;10.13;;;;;;;-2.34;100.00;100955.45;1713766;82;21044;-68
2022/12/14 14:06:40;;;;;;;24.27;10.93;;;;;;;-2.36;100.00;100955.98;1716770;82;21049;-71
2022/12/14 14:09:32;;;;;;;24.03;11.03;;;;;;;-2.40;100.00;100954.41;1714228;82;21502;-74
2022/12/14 14:12:32;;;;;;;24.73;12.03;;;;;;;-2.45;100.00;100959.88;1712209;81;21093;-73
2022/12/14 14:15:19;;;;;;;23.30;11.30;;;;;;;-2.46;100.00;100961.27;1711903;83;20999;-71
2022/12/14 14:17:48;;;;;;;29.53;13.10;;;;;;;-2.52;100.00;100963.25;1717420;81;21085;-73
2022/12/14 14:20:38;;;;;;;36.00;14.47;;;;;;;-2.56;100.00;100964.31;1716378;81;21006;-73
2022/12/14 14:23:20;;;;;;;30.07;12.80;;;;;;;-2.60;100.00;100974.64;1717283;81;20990;-73
2022/12/14 14:26:24;;;;;;;28.30;12.57;;;;;;;-2.64;100.00;100969.53;1715493;81;21065;-74
2022/12/14 14:32:59;;;;;;;25.77;11.03;;;;;;;-2.73;100.00;100982.21;1653215;85;21090;-73
2022/12/14 14:35:35;;;;;;;23.97;11.00;;;;;;;-2.80;100.00;100994.45;1605659;87;21068;-72
2022/12/14 14:38:26;;;;;;;26.20;12.43;;;;;;;-2.84;100.00;100998.16;1673502;83;21050;-73
2022/12/14 14:40:59;;;;;;;24.10;11.97;;;;;;;-2.88;100.00;100992.98;1653577;83;21555;-74
2022/12/14 14:43:36;;;;;;;26.37;12.80;;;;;;;-2.92;100.00;100990.06;1660060;85;21046;-74
2022/12/14 14:46:05;;;;;;;24.83;12.17;;;;;;;-2.96;100.00;100987.12;1653734;87;21110;-74
2022/12/14 14:48:40;;;;;;;25.93;11.87;;;;;;;-2.99;100.00;100986.37;1636256;86;21558;-73
2022/12/14 14:51:21;;;;;;;28.13;13.33;;;;;;;-3.03;100.00;100984.31;1650758;85;21051;-73
2022/12/14 14:53:48;;;;;;;27.17;11.73;;;;;;;-3.08;100.00;100995.54;1648163;87;21118;-72
2022/12/14 14:56:38;;;;;;;26.07;11.87;;;;;;;-3.13;100.00;100994.42;1626373;87;21095;-72
2022/12/14 14:59:23;;;;;;;24.40;11.53;;;;;;;-3.17;100.00;100998.55;1639230;87;21019;-74
2022/12/14 15:02:02;;;;;;;25.27;11.17;;;;;;;-3.22;100.00;100994.78;1651843;87;21103;-72
2022/12/14 15:04:47;;;;;;;26.20;11.77;;;;;;;-3.28;100.00;101005.12;1649929;83;21070;-73
2022/12/14 15:07:24;;;;;;;22.73;9.57;;;;;;;-3.32;100.00;101011.45;1697265;85;21086;-73
2022/12/14 15:10:08;;;;;;;20.10;9.07;;;;;;;-3.35;100.00;101008.06;1697511;85;21054;-75
2022/12/14 15:12:48;;;;;;;20.93;9.30;;;;;;;-3.44;100.00;101010.59;1696049;85;21093;-73
2022/12/14 15:15:34;;;;;;;21.43;8.97;;;;;;;-3.54;100.00;101013.17;1697722;85;21096;-73
2022/12/14 15:18:30;;;;;;;16.20;7.93;;;;;;;-3.64;100.00;101009.56;1697551;85;21050;-75
2022/12/14 15:21:05;;;;;;;18.33;8.63;;;;;;;-3.68;100.00;101022.97;1697966;85;21041;-75
2022/12/14 15:23:36;;;;;;;;;;;;;;;-3.73;100.00;101027.09;1700393;84;21078;-75
2022/12/14 15:26:10;;;;;;;21.80;9.40;;;;;;;-3.78;100.00;101032.14;1698308;85;20119;-74
2022/12/14 15:28:37;;;;;;;22.70;10.50;;;;;;;-3.83;100.00;101026.55;1696939;85;21052;-74
2022/12/14 15:31:05;;;;;;;25.73;10.93;;;;;;;-3.87;100.00;101036.83;1696280;85;21037;-73
2022/12/14 15:33:33;;;;;;;26.60;12.07;;;;;;;-3.89;100.00;101043.95;1696307;85;21045;-75
2022/12/14 15:36:07;;;;;;;21.87;10.47;;;;;;;-3.91;100.00;101044.47;1696979;85;21101;-73
2022/12/14 15:38:36;;;;;;;27.90;10.73;;;;;;;-3.95;100.00;101049.91;1696313;85;21125;-74
2022/12/14 15:41:13;;;;;;;24.67;10.17;;;;;;;-4.02;100.00;101051.89;1696628;85;21068;-74
2022/12/14 15:43:45;;;;;;;23.60;10.57;;;;;;;-4.07;100.00;101056.47;1697131;83;21014;-72
2022/12/14 15:46:25;;;;;;;25.73;10.63;;;;;;;-4.11;100.00;101050.42;1697858;85;21053;-74
2022/12/14 15:49:07;;;;;;;21.13;9.40;;;;;;;-4.15;100.00;101050.60;1698093;85;21145;-74
2022/12/14 15:51:39;;;;;;;23.80;10.30;;;;;;;-4.18;100.00;101063.44;1696211;85;21033;-73
2022/12/14 15:54:08;;;;;;;;;;;;;;;-4.21;100.00;101065.73;1700271;85;21218;-73
2022/12/14 15:56:40;;;;;;;19.27;9.23;;;;;;;-4.27;100.00;101075.17;1697667;85;20139;-73
2022/12/14 15:59:16;;;;;;;20.40;9.03;;;;;;;-4.31;100.00;101077.52;1670630;85;21050;-72
2022/12/14 16:01:49;;;;;;;21.53;8.60;;;;;;;-4.33;100.00;101087.28;1697880;85;21037;-74
2022/12/14 16:04:19;;;;;;;22.22;9.48;;;;;;;-4.34;100.00;101076.76;1697630;85;21085;-74
2022/12/14 16:06:53;;;;;;;21.47;9.00;;;;;;;-4.37;100.00;101079.06;1697800;85;21054;-73
2022/12/14 16:09:30;;;;;;;21.83;9.77;;;;;;;-4.39;100.00;101091.45;1697431;85;21030;-74
2022/12/14 16:12:03;;;;;;;26.03;10.40;;;;;;;-4.42;100.00;101095.04;1698088;84;21057;-73
2022/12/14 16:14:47;;;;;;;22.10;9.68;;;;;;;-4.42;100.00;101091.08;1697944;85;21108;-74
2022/12/14 16:17:26;;;;;;;23.10;10.13;;;;;;;-4.44;100.00;101094.23;1698044;85;21041;-73
2022/12/14 16:19:58;;;;;;;22.47;10.13;;;;;;;-4.46;100.00;101085.94;1697217;84;21050;-72
2022/12/14 16:22:28;;;;;;;23.43;10.30;;;;;;;-4.50;100.00;101083.84;1674382;85;21062;-74
2022/12/14 16:25:11;;;;;;;22.90;10.40;;;;;;;-4.52;100.00;101083.51;1697714;85;21018;-73
2022/12/14 16:27:43;;;;;;;21.10;9.60;;;;;;;-4.54;100.00;101077.42;1697739;85;21535;-73
2022/12/14 16:30:26;;;;;;;23.90;10.10;;;;;;;-4.56;100.00;101073.50;1668838;85;21073;-72
2022/12/14 16:33:18;;;;;;;19.23;9.17;;;;;;;-4.58;100.00;101083.25;1697642;85;21519;-73
2022/12/14 16:35:46;;;;;;;24.13;10.47;;;;;;;-4.60;100.00;101089.05;1697673;85;21077;-74
2022/12/14 16:38:15;;;;;;;23.83;10.33;;;;;;;-4.62;100.00;101089.52;1697597;85;21514;-73
2022/12/14 16:40:48;;;;;;;22.37;10.27;;;;;;;-4.64;100.00;101093.98;1697367;85;21057;-73
2022/12/14 16:43:29;;;;;;;21.67;9.10;;;;;;;-4.66;100.00;101090.54;1697121;85;21054;-72
2022/12/14 16:46:34;;;;;;;20.63;9.83;;;;;;;-4.69;100.00;101085.34;1685104;84;21093;-74
2022/12/14 16:49:38;;;;;;;21.40;8.90;;;;;;;-4.72;100.00;101078.41;1697487;85;21136;-73
2022/12/14 16:52:25;;;;;;;20.70;9.15;;;;;;;-4.75;100.00;101072.36;1699294;85;21043;-72
2022/12/14 16:55:13;;;;;;;22.93;9.40;;;;;;;-4.79;100.00;101068.95;1699422;85;21053;-73
2022/12/14 16:57:57;;;;;;;22.93;9.90;;;;;;;-4.82;100.00;101073.86;1698703;85;21074;-75
2022/12/14 17:00:34;;;;;;;23.20;9.50;;;;;;;-4.85;100.00;101066.49;1697395;85;21046;-73
2022/12/14 17:03:14;;;;;;;23.27;9.97;;;;;;;-4.88;100.00;101060.87;1697653;85;21018;-73
2022/12/14 17:06:25;;;;;;;26.23;10.57;;;;;;;-4.90;100.00;101072.39;1697105;85;21073;-71
2022/12/14 17:09:00;;;;;;;28.60;10.87;;;;;;;-4.94;100.00;101072.91;1697859;85;21058;-73
2022/12/14 17:11:28;;;;;;;28.53;11.50;;;;;;;-4.94;100.00;101081.30;1697460;85;21062;-73
2022/12/14 17:13:57;;;;;;;24.47;10.30;;;;;;;-4.95;100.00;101087.03;1697487;85;21046;-73
2022/12/14 17:16:26;;;;;;;24.63;11.10;;;;;;;-4.95;100.00;101088.35;1697508;85;21037;-73
2022/12/14 17:18:53;;;;;;;23.73;10.77;;;;;;;-4.96;100.00;101080.91;1698068;85;21017;-73
2022/12/14 17:21:27;;;;;;;25.07;11.00;;;;;;;-4.99;100.00;101079.67;1697474;85;21082;-73
2022/12/14 17:23:54;;;;;;;22.10;10.18;;;;;;;-5.01;100.00;101085.89;1697975;85;21054;-74
2022/12/14 17:26:30;;;;;;;29.77;11.80;;;;;;;-5.03;100.00;101084.64;1697443;85;21073;-73
2022/12/14 17:28:57;;;;;;;25.83;11.00;;;;;;;-5.04;100.00;101082.05;1697693;85;21101;-73
2022/12/14 17:31:25;;;;;;;27.77;11.20;;;;;;;-5.06;100.00;101092.64;1697388;83;21509;-72
2022/12/14 17:33:53;;;;;;;23.70;10.70;;;;;;;-5.07;100.00;101100.12;1697854;85;21476;-73
2022/12/14 17:36:20;;;;;;;27.57;10.57;;;;;;;-5.08;100.00;101096.21;1697356;85;21045;-73
2022/12/14 17:38:47;;;;;;;22.53;9.83;;;;;;;-5.10;100.00;101095.40;1697488;85;21041;-73
2022/12/14 17:41:19;;;;;;;26.33;10.43;;;;;;;-5.11;100.00;101097.64;1697391;85;21069;-73
2022/12/14 17:43:48;;;;;;;19.95;9.05;;;;;;;-5.13;100.00;101104.28;1696583;85;21527;-73
2022/12/14 17:46:15;;;;;;;22.53;9.23;;;;;;;-5.15;100.00;101110.91;1697748;85;21057;-73
2022/12/14 17:48:42;;;;;;;22.50;9.73;;;;;;;-5.17;100.00;101114.05;1697482;85;21068;-73
2022/12/14 17:51:20;;;;;;;21.33;9.20;;;;;;;-5.20;100.00;101120.73;1697570;85;21069;-73
2022/12/14 17:53:49;;;;;;;21.33;8.60;;;;;;;-5.22;100.00;101135.73;1697712;85;21053;-73
2022/12/14 17:56:19;;;;;;;20.50;8.90;;;;;;;-5.23;100.00;101135.77;1697582;85;21094;-73
2022/12/14 17:58:46;;;;;;;23.17;8.73;;;;;;;-5.25;100.00;101139.77;1697421;85;21518;-74
2022/12/14 22:08:40;;;;;;;19.73;8.73;;;;;;;-5.83;100.00;101109.73;1820760;79;22880;-74
2022/12/14 22:11:10;;;;;;;18.07;7.67;;;;;;;-5.75;100.00;101135.44;1792198;80;21048;-73
2022/12/14 22:13:38;;;;;;;21.30;8.70;;;;;;;-5.68;100.00;101142.27;1792074;80;21028;-73
2022/12/14 22:16:11;;;;;;;16.13;7.30;;;;;;;-5.61;100.00;101134.61;1792165;80;21041;-72
2022/12/14 22:18:38;;;;;;;19.00;7.00;;;;;;;-5.55;100.00;101143.66;1792068;80;21024;-73
2022/12/14 22:21:07;;;;;;;19.50;8.10;;;;;;;-5.48;100.00;101140.88;1792157;80;21032;-73
2022/12/14 22:23:40;;;;;;;20.03;8.17;;;;;;;-5.42;100.00;101145.95;1792215;80;21536;-73
2022/12/14 22:26:07;;;;;;;20.32;8.28;;;;;;;-5.37;100.00;101144.92;1792472;80;21029;-73
2022/12/14 22:28:35;;;;;;;18.07;6.77;;;;;;;-5.31;100.00;101146.98;1792136;80;21009;-74
2022/12/14 22:31:04;;;;;;;19.70;7.73;;;;;;;-5.26;100.00;101151.67;1792390;79;20994;-73
2022/12/14 22:33:32;;;;;;;16.23;7.03;;;;;;;-5.21;100.00;101157.22;1792143;80;21025;-73
2022/12/14 22:36:00;;;;;;;17.03;7.00;;;;;;;-5.17;100.00;101160.20;1792318;80;20981;-73
2022/12/14 22:38:31;;;;;;;18.23;6.93;;;;;;;-5.12;100.00;101169.75;1792385;80;21498;-74
2022/12/14 22:41:05;;;;;;;17.40;6.70;;;;;;;-5.08;100.00;101167.42;1792404;80;21013;-73
2022/12/14 22:43:34;;;;;;;16.57;6.60;;;;;;;-5.08;100.00;101171.38;1792158;80;21029;-74
2022/12/14 22:46:02;;;;;;;15.37;6.27;;;;;;;-5.07;100.00;101162.58;1792437;80;21021;-74
2022/12/14 22:48:36;;;;;;;13.73;6.33;;;;;;;-5.06;100.00;101153.77;1791992;80;21080;-73
2022/12/14 22:51:10;;;;;;;14.10;5.77;;;;;;;-5.05;100.00;101154.16;1792480;80;21017;-74
2022/12/14 22:53:38;;;;;;;15.83;6.80;;;;;;;-5.05;100.00;101152.37;1791964;80;21002;-74
2022/12/14 22:56:38;;;;;;;14.37;6.23;;;;;;;-5.00;100.00;101146.52;1792058;80;21013;-73
2022/12/14 22:59:15;;;;;;;11.47;5.97;;;;;;;-4.99;100.00;101148.26;1791398;80;21502;-73
2022/12/14 23:01:42;;;;;;;15.73;5.73;;;;;;;-4.92;100.00;101137.51;1791587;80;21013;-73
2022/12/14 23:04:10;;;;;;;13.17;5.57;;;;;;;-4.90;100.00;101129.13;1791125;80;21463;-74
2022/12/14 23:06:38;;;;;;;14.93;5.70;;;;;;;-4.86;100.00;101121.52;1791822;80;21565;-73
